createdAt,value
2019-05-29T00:00:44.474Z,56.04
2019-05-29T00:03:14.509Z,55.89
2019-05-29T00:05:44.574Z,55.95
2019-05-29T00:08:14.690Z,55.93
2019-05-29T00:10:44.629Z,56.08
2019-05-29T00:13:14.524Z,56.43
2019-05-29T00:15:44.454Z,56.43
2019-05-29T00:18:14.556Z,56.42
2019-05-29T00:20:44.959Z,56.52
2019-05-29T00:23:14.731Z,56.19
2019-05-29T00:25:44.475Z,56.26
2019-05-29T00:28:14.894Z,56.49
2019-05-29T00:30:44.748Z,56.51
2019-05-29T00:33:14.477Z,56.93
2019-05-29T00:35:44.251Z,56.65
2019-05-29T00:38:14.736Z,56.42
2019-05-29T00:40:44.531Z,56.92
2019-05-29T00:43:15.482Z,57.06
2019-05-29T00:45:46.287Z,57.19
2019-05-29T00:48:16.162Z,57.41
2019-05-29T00:50:45.648Z,57.48
2019-05-29T00:53:16.283Z,57.77
2019-05-29T00:55:46.182Z,57.96
2019-05-29T00:58:15.722Z,57.79
2019-05-29T01:00:45.450Z,58.02
2019-05-29T01:03:15.836Z,57.90
2019-05-29T01:05:45.707Z,58.16
2019-05-29T01:08:16.367Z,58.47
2019-05-29T01:10:45.929Z,58.74
2019-05-29T01:13:15.548Z,58.81
2019-05-29T01:15:45.322Z,58.94
2019-05-29T01:18:15.771Z,59.31
2019-05-29T01:20:45.600Z,59.21
2019-05-29T01:23:16.186Z,59.38
2019-05-29T01:25:46.042Z,59.34
2019-05-29T01:28:16.815Z,60.15
2019-05-29T01:30:51.442Z,60.19
2019-05-29T01:33:20.554Z,60.15
2019-05-29T01:35:51.116Z,60.23
2019-05-29T01:38:21.553Z,60.06
2019-05-29T01:40:51.292Z,60.05
2019-05-29T01:43:21.474Z,60.64
2019-05-29T01:45:54.428Z,60.12
2019-05-29T01:48:24.523Z,60.58
2019-05-29T01:50:54.233Z,60.60
2019-05-29T01:53:23.813Z,61.13
2019-05-29T01:55:55.372Z,61.17
2019-05-29T01:58:24.950Z,60.50
2019-05-29T02:00:54.583Z,60.75
2019-05-29T02:03:24.094Z,61.14
2019-05-29T02:05:53.600Z,61.25
2019-05-29T02:08:24.258Z,61.60
2019-05-29T02:10:53.869Z,62.06
2019-05-29T02:13:23.589Z,61.46
2019-05-29T02:15:53.707Z,61.47
2019-05-29T02:18:23.225Z,61.88
2019-05-29T02:20:52.749Z,62.05
2019-05-29T02:23:22.365Z,62.86
2019-05-29T02:25:51.968Z,63.96
2019-05-29T02:28:22.563Z,64.12
2019-05-29T02:30:55.354Z,63.46
2019-05-29T02:33:26.821Z,64.02
2019-05-29T02:35:56.133Z,64.73
2019-05-29T02:38:27.199Z,65.67
2019-05-29T02:40:57.060Z,65.44
2019-05-29T02:43:27.779Z,65.60
2019-05-29T02:45:58.533Z,65.47
2019-05-29T02:48:31.900Z,65.80
2019-05-29T02:51:01.790Z,67.63
2019-05-29T02:53:31.360Z,67.50
2019-05-29T02:56:00.865Z,67.28
2019-05-29T02:58:31.885Z,67.03
2019-05-29T03:01:04.624Z,66.47
2019-05-29T03:03:39.512Z,65.90
2019-05-29T03:06:05.821Z,65.80
2019-05-29T03:08:35.467Z,65.93
2019-05-29T03:11:05.308Z,66.37
2019-05-29T03:13:34.864Z,66.70
2019-05-29T03:16:11.480Z,67.39
2019-05-29T03:18:36.213Z,67.04
2019-05-29T03:21:05.837Z,67.28
2019-05-29T03:23:36.402Z,67.24
2019-05-29T03:26:07.046Z,67.36
2019-05-29T03:28:38.012Z,66.14
2019-05-29T03:31:08.637Z,66.80
2019-05-29T03:33:44.950Z,66.88
2019-05-29T03:36:09.478Z,67.23
2019-05-29T03:38:40.514Z,67.74
2019-05-29T03:41:10.050Z,67.34
2019-05-29T03:43:39.587Z,68.95
2019-05-29T03:46:28.730Z,67.90
2019-05-29T03:48:40.553Z,67.59
2019-05-29T03:51:10.656Z,66.95
2019-05-29T03:53:40.280Z,66.04
2019-05-29T03:56:09.961Z,65.43
2019-05-29T03:58:39.723Z,65.79
2019-05-29T04:01:09.708Z,67.27
2019-05-29T04:03:39.466Z,68.23
2019-05-29T04:06:09.160Z,68.63
2019-05-29T04:08:38.955Z,68.03
2019-05-29T04:11:09.469Z,67.49
2019-05-29T04:13:40.132Z,67.17
2019-05-29T04:16:14.211Z,66.63
2019-05-29T04:18:44.488Z,65.98
2019-05-29T04:21:16.337Z,65.80
2019-05-29T04:23:49.727Z,65.61
2019-05-29T04:26:20.770Z,66.41
2019-05-29T04:28:51.216Z,65.73
2019-05-29T04:31:25.205Z,65.26
2019-05-29T04:33:54.811Z,64.80
2019-05-29T04:36:24.438Z,65.29
2019-05-29T04:38:53.993Z,64.79
2019-05-29T04:41:23.798Z,66.62
2019-05-29T04:43:56.920Z,66.05
2019-05-29T04:46:24.684Z,65.16
2019-05-29T04:48:54.213Z,64.87
2019-05-29T04:51:23.838Z,64.91
2019-05-29T04:53:54.163Z,64.36
2019-05-29T04:56:23.934Z,63.62
2019-05-29T04:58:53.609Z,62.71
2019-05-29T05:01:25.508Z,62.30
2019-05-29T05:04:14.528Z,62.81
2019-05-29T05:06:44.512Z,61.79
2019-05-29T05:09:14.124Z,61.14
2019-05-29T05:11:46.251Z,60.51
2019-05-29T05:14:17.384Z,60.68
2019-05-29T05:16:47.752Z,59.87
2019-05-29T05:19:17.493Z,59.80
2019-05-29T05:21:47.080Z,59.84
2019-05-29T05:24:16.693Z,59.42
2019-05-29T05:26:46.218Z,58.58
2019-05-29T05:29:15.768Z,57.57
2019-05-29T05:31:45.302Z,57.09
2019-05-29T05:34:15.256Z,55.72
2019-05-29T05:36:45.223Z,55.34
2019-05-29T05:39:14.818Z,54.27
2019-05-29T05:41:44.349Z,54.71
2019-05-29T05:44:13.973Z,54.46
2019-05-29T05:46:43.477Z,53.57
2019-05-29T05:49:13.016Z,52.75
2019-05-29T05:51:44.639Z,51.56
2019-05-29T05:54:13.848Z,51.04
2019-05-29T05:56:43.419Z,50.75
2019-05-29T05:59:13.520Z,50.73
2019-05-29T06:01:43.149Z,51.23
2019-05-29T06:04:12.895Z,50.88
2019-05-29T06:06:42.682Z,49.92
2019-05-29T06:09:12.465Z,49.57
2019-05-29T06:11:42.637Z,50.24
2019-05-29T06:14:12.662Z,51.04
2019-05-29T06:16:42.793Z,48.81
2019-05-29T06:19:12.390Z,48.28
2019-05-29T06:21:42.924Z,47.81
2019-05-29T06:24:12.758Z,47.34
2019-05-29T06:26:43.061Z,47.42
2019-05-29T06:29:12.796Z,48.02
2019-05-29T06:31:43.378Z,48.36
2019-05-29T06:34:13.762Z,48.47
2019-05-29T06:36:44.035Z,48.17
2019-05-29T06:39:13.665Z,47.94
2019-05-29T06:41:44.358Z,47.99
2019-05-29T06:44:14.070Z,47.67
2019-05-29T06:46:45.332Z,48.20
2019-05-29T06:49:14.866Z,48.42
2019-05-29T06:51:44.542Z,47.49
2019-05-29T06:54:14.063Z,47.02
2019-05-29T06:56:43.811Z,47.16
2019-05-29T06:59:13.576Z,45.87
2019-05-29T07:01:43.544Z,45.25
2019-05-29T07:04:13.115Z,44.46
2019-05-29T07:06:42.775Z,44.06
2019-05-29T07:09:12.367Z,42.66
2019-05-29T07:11:41.876Z,42.37
2019-05-29T07:14:11.934Z,42.45
2019-05-29T07:16:51.513Z,42.40
2019-05-29T07:19:47.039Z,41.81
2019-05-29T07:21:45.037Z,40.86
2019-05-29T07:24:14.786Z,41.23
2019-05-29T07:26:45.477Z,42.36
2019-05-29T07:29:17.374Z,42.29
2019-05-29T07:31:47.291Z,42.58
2019-05-29T07:34:16.949Z,42.51
2019-05-29T07:36:48.059Z,42.21
2019-05-29T07:39:17.747Z,41.62
2019-05-29T07:41:47.752Z,40.87
2019-05-29T07:44:17.268Z,39.81
2019-05-29T07:46:47.506Z,39.68
2019-05-29T07:49:18.166Z,39.75
2019-05-29T07:51:48.827Z,39.75
2019-05-29T07:54:18.638Z,39.65
2019-05-29T07:56:48.715Z,38.75
2019-05-29T07:59:18.262Z,37.57
2019-05-29T08:01:47.768Z,37.11
2019-05-29T08:04:17.366Z,37.52
2019-05-29T08:06:52.257Z,38.32
2019-05-29T08:09:18.166Z,39.09
2019-05-29T08:11:47.775Z,39.24
2019-05-29T08:14:20.171Z,39.67
2019-05-29T08:16:50.178Z,39.94
2019-05-29T08:19:19.892Z,39.87
2019-05-29T08:21:50.575Z,39.89
2019-05-29T08:24:24.566Z,40.06
2019-05-29T08:26:51.554Z,40.12
2019-05-29T08:29:24.152Z,39.59
2019-05-29T08:31:55.857Z,39.16
2019-05-29T08:34:25.370Z,39.30
2019-05-29T08:37:06.005Z,39.72
2019-05-29T08:39:36.093Z,39.91
2019-05-29T08:42:21.349Z,39.73
2019-05-29T08:44:31.846Z,39.83
2019-05-29T08:47:09.639Z,40.05
2019-05-29T08:49:32.712Z,39.94
2019-05-29T08:52:11.819Z,39.66
2019-05-29T08:54:33.577Z,39.40
2019-05-29T08:57:03.090Z,38.49
2019-05-29T08:59:32.741Z,38.01
2019-05-29T09:02:02.346Z,37.73
2019-05-29T09:04:31.844Z,36.65
2019-05-29T09:07:01.389Z,36.36
2019-05-29T09:09:30.994Z,35.41
2019-05-29T09:12:00.653Z,35.23
2019-05-29T09:14:30.218Z,34.52
2019-05-29T09:16:59.744Z,36.00
2019-05-29T09:19:29.334Z,35.33
2019-05-29T09:21:58.940Z,34.15
2019-05-29T09:24:28.557Z,33.40
2019-05-29T09:26:58.099Z,33.89
2019-05-29T09:29:27.847Z,33.87
2019-05-29T09:31:57.405Z,33.37
2019-05-29T09:34:28.646Z,33.73
2019-05-29T09:36:58.199Z,33.96
2019-05-29T09:39:27.795Z,33.13
2019-05-29T09:41:57.295Z,33.02
2019-05-29T09:44:38.000Z,33.09
2019-05-29T09:46:58.160Z,33.56
2019-05-29T09:49:27.732Z,33.99
2019-05-29T09:51:57.951Z,34.25
2019-05-29T09:54:27.676Z,34.72
2019-05-29T09:56:58.406Z,35.47
2019-05-29T09:59:29.918Z,35.77
2019-05-29T10:02:03.277Z,35.48
2019-05-29T10:04:30.875Z,35.10
2019-05-29T10:07:02.160Z,34.61
2019-05-29T10:09:32.053Z,33.29
2019-05-29T10:12:06.363Z,32.97
2019-05-29T10:14:33.335Z,33.45
2019-05-29T10:17:09.169Z,32.45
2019-05-29T10:19:34.203Z,32.32
2019-05-29T10:22:04.516Z,32.57
2019-05-29T10:24:35.193Z,31.41
2019-05-29T10:27:06.614Z,30.81
2019-05-29T10:29:37.525Z,31.55
2019-05-29T10:32:07.298Z,32.00
2019-05-29T10:34:36.952Z,33.16
2019-05-29T10:37:06.707Z,33.78
2019-05-29T10:39:36.757Z,33.54
2019-05-29T10:42:06.530Z,34.01
2019-05-29T10:44:36.263Z,34.75
2019-05-29T10:47:06.023Z,34.55
2019-05-29T10:49:36.187Z,34.84
2019-05-29T10:52:15.556Z,34.24
2019-05-29T10:54:39.285Z,34.00
2019-05-29T10:57:09.221Z,33.65
2019-05-29T10:59:38.832Z,32.48
2019-05-29T11:02:08.999Z,32.38
2019-05-29T11:04:38.558Z,30.83
2019-05-29T11:07:08.409Z,30.92
2019-05-29T11:09:44.593Z,29.94
2019-05-29T11:12:09.461Z,29.71
2019-05-29T11:14:39.046Z,30.23
2019-05-29T11:17:08.713Z,30.53
2019-05-29T11:19:38.366Z,31.34
2019-05-29T11:22:25.272Z,32.03
2019-05-29T11:24:39.913Z,31.45
2019-05-29T11:27:09.409Z,31.34
2019-05-29T11:29:41.045Z,31.89
2019-05-29T11:32:10.751Z,31.79
2019-05-29T11:34:40.282Z,31.25
2019-05-29T11:37:09.892Z,31.27
2019-05-29T11:39:39.453Z,31.66
2019-05-29T11:42:09.154Z,31.30
2019-05-29T11:44:38.682Z,30.46
2019-05-29T11:47:08.291Z,29.83
2019-05-29T11:49:37.951Z,29.33
2019-05-29T11:52:23.280Z,29.59
2019-05-29T11:54:39.038Z,29.23
2019-05-29T11:57:08.705Z,29.75
2019-05-29T11:59:38.363Z,30.22
2019-05-29T12:02:08.071Z,30.33
2019-05-29T12:04:37.628Z,30.54
2019-05-29T12:07:07.237Z,30.26
2019-05-29T12:09:37.058Z,30.78
2019-05-29T12:12:06.936Z,30.47
2019-05-29T12:14:57.963Z,30.92
2019-05-29T12:17:08.131Z,31.04
2019-05-29T12:19:59.851Z,31.36
2019-05-29T12:22:28.397Z,30.74
2019-05-29T12:24:58.589Z,30.56
2019-05-29T12:27:28.320Z,30.72
2019-05-29T12:29:58.846Z,30.40
2019-05-29T12:32:28.356Z,30.58
2019-05-29T12:34:59.690Z,31.21
2019-05-29T12:37:30.219Z,30.04
2019-05-29T12:40:00.050Z,30.07
2019-05-29T12:42:30.007Z,29.60
2019-05-29T12:44:59.720Z,29.31
2019-05-29T12:47:29.443Z,29.96
2019-05-29T12:50:02.662Z,29.48
2019-05-29T12:52:32.365Z,29.91
2019-05-29T12:55:02.461Z,30.05
2019-05-29T12:57:32.243Z,30.64
2019-05-29T13:00:04.397Z,30.79
2019-05-29T13:02:33.380Z,30.98
2019-05-29T13:05:12.571Z,31.13
2019-05-29T13:07:36.565Z,31.14
2019-05-29T13:10:26.980Z,31.92
2019-05-29T13:12:43.442Z,31.18
2019-05-29T13:15:16.976Z,30.65
2019-05-29T13:17:49.224Z,31.27
2019-05-29T13:20:22.274Z,32.59
2019-05-29T13:22:52.956Z,32.73
2019-05-29T13:25:23.206Z,32.70
2019-05-29T13:27:52.918Z,32.65
2019-05-29T13:30:23.804Z,32.65
2019-05-29T13:32:53.722Z,32.45
2019-05-29T13:35:23.838Z,32.15
2019-05-29T13:37:53.607Z,31.98
2019-05-29T13:40:23.323Z,32.14
2019-05-29T13:42:52.931Z,32.17
2019-05-29T13:45:27.170Z,32.57
2019-05-29T13:47:56.949Z,32.43
2019-05-29T13:50:26.737Z,32.20
2019-05-29T13:52:57.140Z,32.98
2019-05-29T13:55:26.866Z,33.27
2019-05-29T13:57:57.596Z,33.12
2019-05-29T14:00:35.150Z,33.52
2019-05-29T14:03:00.171Z,33.47
2019-05-29T14:05:30.034Z,33.29
2019-05-29T14:08:00.666Z,33.26
2019-05-29T14:10:30.847Z,32.40
2019-05-29T14:13:00.980Z,32.08
2019-05-29T14:15:30.834Z,32.10
2019-05-29T14:18:00.712Z,31.53
2019-05-29T14:20:30.486Z,31.86
2019-05-29T14:23:01.261Z,32.05
2019-05-29T14:25:31.275Z,32.13
2019-05-29T14:28:01.017Z,31.80
2019-05-29T14:30:32.889Z,31.56
2019-05-29T14:33:04.247Z,32.25
2019-05-29T14:35:34.057Z,32.05
2019-05-29T14:38:08.782Z,31.57
2019-05-29T14:40:35.620Z,31.19
2019-05-29T14:43:07.227Z,30.79
2019-05-29T14:45:37.931Z,30.62
2019-05-29T14:48:08.157Z,30.83
2019-05-29T14:50:37.987Z,30.58
2019-05-29T14:53:09.275Z,30.40
2019-05-29T14:55:39.129Z,30.70
2019-05-29T14:58:09.819Z,30.92
2019-05-29T15:00:40.356Z,30.87
2019-05-29T15:03:10.001Z,30.54
2019-05-29T15:05:39.623Z,30.84
2019-05-29T15:08:12.030Z,30.58
2019-05-29T15:10:41.887Z,30.46
2019-05-29T15:13:13.155Z,30.21
2019-05-29T15:15:43.638Z,30.00
2019-05-29T15:18:17.323Z,30.20
2019-05-29T15:20:44.726Z,29.90
2019-05-29T15:23:15.478Z,29.87
2019-05-29T15:25:45.481Z,30.17
2019-05-29T15:28:16.387Z,29.61
2019-05-29T15:30:46.864Z,30.64
2019-05-29T15:33:16.886Z,30.15
2019-05-29T15:35:46.985Z,29.87
2019-05-29T15:38:17.104Z,30.56
2019-05-29T15:40:47.121Z,29.63
2019-05-29T15:43:17.293Z,29.74
2019-05-29T15:45:47.503Z,29.78
2019-05-29T15:48:17.504Z,29.26
2019-05-29T15:50:47.885Z,30.02
2019-05-29T15:53:17.584Z,30.42
2019-05-29T15:55:47.339Z,30.90
2019-05-29T15:58:18.010Z,30.25
2019-05-29T16:00:48.365Z,30.27
2019-05-29T16:03:17.947Z,30.18
2019-05-29T16:05:47.593Z,30.50
2019-05-29T16:08:18.300Z,30.44
2019-05-29T16:10:48.045Z,29.83
2019-05-29T16:13:18.968Z,30.29
2019-05-29T16:15:48.964Z,30.98
2019-05-29T16:18:26.349Z,29.94
2019-05-29T16:20:50.263Z,30.06
2019-05-29T16:23:33.284Z,30.85
2019-05-29T16:25:51.894Z,30.26
2019-05-29T16:28:21.627Z,30.21
2019-05-29T16:30:51.640Z,30.58
2019-05-29T16:33:21.386Z,30.94
2019-05-29T16:35:52.716Z,30.35
2019-05-29T16:38:23.365Z,30.17
2019-05-29T16:40:53.045Z,30.59
2019-05-29T16:43:24.282Z,29.86
2019-05-29T16:45:53.928Z,29.72
2019-05-29T16:48:23.525Z,30.22
2019-05-29T16:50:53.165Z,31.18
2019-05-29T16:53:23.284Z,30.34
2019-05-29T16:55:54.495Z,30.04
2019-05-29T16:58:24.572Z,30.00
2019-05-29T17:00:54.753Z,30.29
2019-05-29T17:03:26.949Z,30.22
2019-05-29T17:05:56.629Z,30.60
2019-05-29T17:08:26.314Z,30.19
2019-05-29T17:10:56.017Z,30.21
2019-05-29T17:13:25.731Z,29.80
2019-05-29T17:15:57.405Z,29.75
2019-05-29T17:18:27.093Z,30.09
2019-05-29T17:20:56.699Z,30.12
2019-05-29T17:23:26.563Z,29.97
2019-05-29T17:26:09.753Z,30.02
2019-05-29T17:28:28.421Z,30.05
2019-05-29T17:31:02.155Z,30.42
2019-05-29T17:33:30.262Z,30.18
2019-05-29T17:36:00.262Z,29.42
2019-05-29T17:38:30.099Z,29.14
2019-05-29T17:40:59.707Z,29.23
2019-05-29T17:43:29.529Z,29.70
2019-05-29T17:45:58.428Z,30.17
2019-05-29T17:48:28.162Z,29.76
2019-05-29T17:50:57.782Z,29.64
2019-05-29T17:53:28.231Z,30.28
2019-05-29T17:55:57.833Z,30.44
2019-05-29T17:58:27.525Z,30.33
2019-05-29T18:00:57.489Z,30.46
2019-05-29T18:03:28.980Z,31.88
2019-05-29T18:05:58.545Z,32.03
2019-05-29T18:08:29.756Z,31.98
2019-05-29T18:11:01.856Z,32.37
2019-05-29T18:13:31.573Z,34.04
2019-05-29T18:16:01.407Z,31.68
2019-05-29T18:18:31.022Z,32.81
2019-05-29T18:21:00.696Z,32.68
2019-05-29T18:23:30.354Z,34.17
2019-05-29T18:26:00.004Z,31.76
2019-05-29T18:28:29.535Z,31.55
2019-05-29T18:30:59.411Z,31.48
2019-05-29T18:33:29.136Z,31.95
2019-05-29T18:35:58.910Z,32.85
2019-05-29T18:38:28.847Z,33.56
2019-05-29T18:40:58.734Z,33.70
2019-05-29T18:43:28.729Z,34.92
2019-05-29T18:45:58.843Z,34.33
2019-05-29T18:48:29.514Z,34.64
2019-05-29T18:50:59.308Z,34.52
2019-05-29T18:53:29.253Z,34.33
2019-05-29T18:55:59.060Z,35.10
2019-05-29T18:58:30.658Z,35.37
2019-05-29T19:01:01.018Z,35.25
2019-05-29T19:03:32.589Z,36.15
2019-05-29T19:06:02.157Z,36.12
2019-05-29T19:08:32.046Z,36.28
2019-05-29T19:11:03.018Z,36.29
2019-05-29T19:13:32.608Z,36.87
2019-05-29T19:16:02.311Z,37.17
2019-05-29T19:18:32.362Z,36.93
2019-05-29T19:21:02.173Z,38.03
2019-05-29T19:23:33.000Z,37.28
2019-05-29T19:26:02.784Z,37.72
2019-05-29T19:28:32.838Z,37.99
2019-05-29T19:31:03.183Z,39.29
2019-05-29T19:33:33.550Z,40.02
2019-05-29T19:36:03.455Z,39.61
2019-05-29T19:38:34.181Z,39.81
2019-05-29T19:41:04.133Z,40.02
2019-05-29T19:43:34.520Z,40.26
2019-05-29T19:46:06.425Z,40.73
2019-05-29T19:48:36.122Z,40.85
2019-05-29T19:51:05.868Z,41.09
2019-05-29T19:53:35.817Z,41.48
2019-05-29T19:56:06.167Z,42.68
2019-05-29T19:58:36.213Z,42.88
2019-05-29T20:01:06.571Z,42.41
2019-05-29T20:03:36.678Z,43.00
2019-05-29T20:06:06.579Z,43.47
2019-05-29T20:08:39.441Z,44.67
2019-05-29T20:11:08.456Z,45.84
2019-05-29T20:13:38.177Z,47.15
2019-05-29T20:16:07.931Z,47.33
2019-05-29T20:18:38.502Z,47.30
2019-05-29T20:21:08.328Z,47.47
2019-05-29T20:23:38.828Z,47.95
2019-05-29T20:26:08.736Z,48.36
2019-05-29T20:28:38.531Z,49.20
2019-05-29T20:31:11.742Z,49.80
2019-05-29T20:33:39.504Z,50.19
2019-05-29T20:36:09.195Z,50.71
2019-05-29T20:38:41.363Z,51.16
2019-05-29T20:41:10.439Z,51.41
2019-05-29T20:43:40.069Z,52.12
2019-05-29T20:46:09.936Z,52.74
2019-05-29T20:48:39.768Z,53.16
2019-05-29T20:51:09.387Z,53.41
2019-05-29T20:53:40.342Z,53.07
2019-05-29T20:56:10.780Z,52.72
2019-05-29T20:58:42.887Z,51.78
2019-05-29T21:01:13.054Z,51.70
2019-05-29T21:03:42.763Z,52.47
2019-05-29T21:06:12.372Z,52.78
2019-05-29T21:08:43.296Z,52.36
2019-05-29T21:11:13.404Z,51.90
2019-05-29T21:13:46.015Z,52.09
2019-05-29T21:16:16.023Z,52.31
2019-05-29T21:18:45.956Z,53.01
2019-05-29T21:21:15.606Z,53.72
2019-05-29T21:23:45.173Z,54.81
2019-05-29T21:26:14.703Z,54.89
2019-05-29T21:28:48.549Z,54.46
2019-05-29T21:31:15.777Z,54.31
2019-05-29T21:33:49.084Z,55.33
2019-05-29T21:36:16.709Z,55.68
2019-05-29T21:38:46.522Z,56.11
2019-05-29T21:41:16.044Z,56.41
2019-05-29T21:43:46.877Z,56.22
2019-05-29T21:46:16.856Z,56.23
2019-05-29T21:48:47.426Z,56.00
2019-05-29T21:51:19.174Z,56.16
2019-05-29T21:53:49.196Z,57.23
2019-05-29T21:56:18.871Z,56.44
2019-05-29T21:59:02.981Z,56.42
2019-05-29T22:01:20.795Z,56.20
2019-05-29T22:03:51.363Z,56.23
2019-05-29T22:06:21.384Z,56.13
2019-05-29T22:08:52.129Z,56.16
2019-05-29T22:11:21.820Z,55.58
2019-05-29T22:13:52.360Z,55.50
2019-05-29T22:16:23.552Z,55.55
2019-05-29T22:18:53.095Z,55.72
2019-05-29T22:21:22.790Z,55.87
2019-05-29T22:23:53.049Z,55.92
2019-05-29T22:26:22.771Z,55.31
2019-05-29T22:28:53.149Z,57.20
2019-05-29T22:31:22.934Z,55.63
2019-05-29T22:33:53.398Z,56.01
2019-05-29T22:36:23.759Z,55.83
2019-05-29T22:38:53.508Z,56.42
2019-05-29T22:41:23.123Z,56.80
2019-05-29T22:43:53.417Z,56.54
2019-05-29T22:46:23.734Z,56.59
2019-05-29T22:48:53.745Z,57.24
2019-05-29T22:51:23.642Z,57.31
2019-05-29T22:53:53.982Z,57.80
2019-05-29T22:56:23.727Z,58.09
2019-05-29T22:58:53.990Z,59.08
2019-05-29T23:01:23.979Z,58.97
2019-05-29T23:03:56.075Z,59.42
2019-05-29T23:06:25.792Z,59.04
2019-05-29T23:08:56.268Z,59.02
2019-05-29T23:11:25.938Z,58.33
2019-05-29T23:13:56.198Z,58.11
2019-05-29T23:16:26.110Z,59.12
2019-05-29T23:18:56.455Z,59.37
2019-05-29T23:21:26.269Z,59.70
2019-05-29T23:23:55.884Z,60.00
2019-05-29T23:26:25.562Z,59.68
2019-05-29T23:28:55.200Z,59.40
2019-05-29T23:31:25.006Z,59.43
2019-05-29T23:33:54.793Z,59.79
2019-05-29T23:36:24.607Z,59.54
2019-05-29T23:38:55.067Z,59.49
2019-05-29T23:41:24.769Z,58.87
2019-05-29T23:43:55.438Z,59.06
2019-05-29T23:46:25.087Z,60.31
2019-05-29T23:48:55.441Z,59.52
2019-05-29T23:51:25.174Z,59.46
2019-05-29T23:53:55.671Z,59.75
2019-05-29T23:56:25.330Z,59.76
2019-05-29T23:58:55.672Z,60.12
